CheckWX is a tool to help pilots better visualize weather data.  It is not intended as a substitute for an official pre-flight weather briefing.

20:56:44 UTC

11R METAR
Brenham Municipal Airport
Brenham, Texas, USA
Current

22 mins ago

K11R 292035Z AUTO 36012KT 10SM OVC021 11/06 A3006 RMK AO2 T01060057
Observed
Jan-29 @ 20:35 UTC
Wind
  • 360° at 12 KTS
Visibility
10 SM
Flight Rules
MVFR
Cloud Levels
  • Overcast at 2,100' AGL
Temperature
11°C / 52°F
Dewpoint
C / 43°F
Humidity
72%
Altimeter
30.06" Hg
Pressure
1017.92 hPa
Previous

42 mins ago

K11R 292015Z AUTO 34011G16KT 10SM OVC021 11/06 A3006 RMK AO2 T01090056
Observed
Jan-29 @ 20:15 UTC
Wind
  • 340° at 11 KTS
  • Gusting to 16 KTS
Visibility
10 SM
Flight Rules
MVFR
Cloud Levels
  • Overcast at 2,100' AGL
Temperature
11°C / 52°F
Dewpoint
C / 43°F
Humidity
72%
Altimeter
30.06" Hg
Pressure
1017.92 hPa
Previous

1 hour ago

K11R 291955Z AUTO 34010KT 10SM OVC021 11/06 A3006 RMK AO2 T01080055
Observed
Jan-29 @ 19:55 UTC
Wind
  • 340° at 10 KTS
Visibility
10 SM
Flight Rules
MVFR
Cloud Levels
  • Overcast at 2,100' AGL
Temperature
11°C / 52°F
Dewpoint
C / 43°F
Humidity
72%
Altimeter
30.06" Hg
Pressure
1017.92 hPa